Terminal Aerodrome Forecast
Issued by NWS

Home | Current Version | Previous Version | Text Only | Print | Product List | Glossary On
Versions: 1 2 3 4 5 6 7 8 9 10 11 12 13 14 15 16 17
683
FTUS43 KMQT 102320
TAFIWD
TAF
KIWD 102320Z 1100/1124 VRB03KT P6SM SCT025
     FM110600 14003KT P6SM BKN070
     FM111100 14005KT P6SM -SN OVC035
     FM111500 12006KT 2SM -SN OVC020=

USA.gov is the U.S. government's official web portal to all federal, state and local government web resources and services.